Time;durP1;ratioP1;P1;durP2;ratioP2;P2;SDS_P1;SDS_P2;PMS_P1;PMS_P2;Temp;Humidity;BMP_temperature;BMP_pressure;BME280_temperature;BME280_humidity;BME280_pressure;Samples;Min_cycle;Max_cycle;Signal;HPM_P1;HPM_P2
2022/01/08 00:01:11;;;;;;;2.03;0.80;;;;;;;5.05;82.41;100995.16;5093269;28;20380;-66
2022/01/08 00:03:40;;;;;;;2.47;0.77;;;;;;;5.02;82.21;101006.59;5091731;28;20050;-66
2022/01/08 00:06:08;;;;;;;1.75;0.60;;;;;;;4.87;82.36;101005.75;5085920;28;20059;-67
2022/01/08 00:08:35;;;;;;;1.13;0.60;;;;;;;4.87;82.38;101008.47;5093003;28;20055;-66
2022/01/08 00:11:03;;;;;;;4.25;0.60;;;;;;;4.71;83.49;101015.78;5093510;28;20538;-66
2022/01/08 00:13:30;;;;;;;1.80;0.77;;;;;;;4.81;83.62;101013.13;5094253;28;20048;-66
2022/01/08 00:15:57;;;;;;;2.30;0.70;;;;;;;4.81;83.70;101021.31;5094070;28;20043;-66
2022/01/08 00:18:25;;;;;;;1.85;0.50;;;;;;;4.65;84.18;101025.06;5094578;28;20055;-67
2022/01/08 00:20:52;;;;;;;2.00;0.60;;;;;;;4.80;83.92;101032.47;5088796;28;20410;-67
2022/01/08 00:23:19;;;;;;;2.67;0.80;;;;;;;4.73;84.36;101034.63;5093980;28;20048;-67
2022/01/08 00:25:46;;;;;;;1.65;0.50;;;;;;;4.87;84.26;101038.50;5093289;28;20040;-67
2022/01/08 00:28:14;;;;;;;3.95;0.70;;;;;;;5.01;83.17;101042.34;5094801;28;20051;-66
2022/01/08 00:30:41;;;;;;;1.73;0.70;;;;;;;4.92;83.30;101033.03;5089587;28;20044;-67
2022/01/08 00:33:08;;;;;;;2.85;0.73;;;;;;;5.06;83.60;101028.72;5084018;28;20047;-67
2022/01/08 00:35:35;;;;;;;2.13;0.90;;;;;;;5.09;83.00;101028.19;5094732;28;20040;-67
2022/01/08 00:38:03;;;;;;;2.53;0.88;;;;;;;5.22;82.57;101033.97;5097438;28;20051;-66
2022/01/08 00:40:30;;;;;;;4.68;0.70;;;;;;;5.07;82.61;101038.56;5093281;28;20491;-67
2022/01/08 00:42:58;;;;;;;2.65;1.10;;;;;;;4.92;83.86;101050.25;5094112;28;20508;-68
2022/01/08 00:45:25;;;;;;;1.80;0.90;;;;;;;4.98;83.20;101054.66;5083343;28;20048;-68
2022/01/08 00:47:52;;;;;;;2.30;0.80;;;;;;;5.01;83.00;101056.00;5097746;28;20044;-67
2022/01/08 00:50:21;;;;;;;3.10;1.00;;;;;;;4.93;82.73;101062.81;5098678;28;20047;-67
2022/01/08 00:52:48;;;;;;;3.72;1.00;;;;;;;4.97;83.21;101066.63;5098489;28;20048;-67
2022/01/08 00:55:16;;;;;;;4.18;0.98;;;;;;;4.96;83.00;101064.19;5098472;28;20059;-67
2022/01/08 00:57:43;;;;;;;4.75;1.25;;;;;;;4.85;83.27;101089.78;5098703;28;20052;-67
2022/01/08 01:00:12;;;;;;;3.75;1.30;;;;;;;4.97;83.84;101085.75;5098737;28;20059;-68
2022/01/08 01:02:40;;;;;;;5.45;1.50;;;;;;;5.40;82.83;101082.63;5090910;28;20040;-67
2022/01/08 01:05:09;;;;;;;8.18;2.10;;;;;;;5.15;82.17;101077.09;5077233;28;20048;-66
2022/01/08 01:07:37;;;;;;;6.45;1.20;;;;;;;5.05;82.44;101076.22;5091584;28;20044;-66
2022/01/08 01:10:05;;;;;;;3.72;1.20;;;;;;;4.96;81.83;101088.75;5096991;28;20051;-67
2022/01/08 01:12:33;;;;;;;3.10;1.10;;;;;;;5.06;81.72;101095.06;5097573;28;20126;-67
2022/01/08 01:15:12;;;;;;;5.50;1.23;;;;;;;4.95;81.80;101090.66;5098758;28;20055;-68
2022/01/08 01:17:39;;;;;;;3.20;1.10;;;;;;;4.90;81.43;101085.16;5087030;28;20051;-67
2022/01/08 01:20:08;;;;;;;4.35;1.52;;;;;;;5.14;80.86;101088.28;5078245;28;20055;-67
2022/01/08 01:22:59;;;;;;;9.15;1.30;;;;;;;5.26;80.43;101086.13;5086594;28;20490;-67
2022/01/08 01:25:36;;;;;;;;;;;;;;;4.96;81.23;101094.22;5098394;28;20101;-67
2022/01/08 01:28:18;;;;;;;8.23;1.65;;;;;;;5.07;81.26;101091.25;5098488;28;19920;-67
2022/01/08 01:47:03;;;;;;;6.68;1.40;;;;;;;5.18;79.25;101081.16;5097646;28;20032;-66
2022/01/08 01:49:33;;;;;;;4.47;1.15;;;;;;;5.14;78.72;101088.28;5081107;28;20048;-67
2022/01/08 01:52:01;;;;;;;6.28;1.60;;;;;;;5.18;78.30;101090.19;5097922;28;20047;-66
2022/01/08 01:54:29;;;;;;;7.32;1.60;;;;;;;5.41;78.16;101097.91;5097692;28;20048;-66
2022/01/08 01:56:57;;;;;;;5.97;1.55;;;;;;;5.54;77.17;101091.91;5097593;28;20043;-66
2022/01/08 01:59:25;;;;;;;6.63;1.40;;;;;;;5.40;77.52;101090.81;5097828;28;20052;-66
2022/01/08 02:01:52;;;;;;;6.35;1.33;;;;;;;5.39;77.54;101082.84;5096649;28;20612;-66
2022/01/08 02:04:20;;;;;;;5.18;1.40;;;;;;;5.62;77.49;101082.34;5097722;28;20056;-66
2022/01/08 02:06:48;;;;;;;4.05;1.30;;;;;;;5.69;76.10;101083.75;5096084;28;20048;-66
2022/01/08 02:09:15;;;;;;;3.70;1.25;;;;;;;5.43;76.91;101079.34;5097491;28;20044;-66
2022/01/08 02:12:00;;;;;;;3.47;1.30;;;;;;;5.63;76.72;101082.06;5097187;28;20060;-67
2022/01/08 02:14:38;;;;;;;4.95;1.33;;;;;;;5.61;76.51;101089.72;5097590;28;20052;-66
2022/01/08 02:17:06;;;;;;;7.97;2.00;;;;;;;5.51;76.64;101077.97;5097201;28;20044;-65
2022/01/08 02:19:34;;;;;;;6.30;1.60;;;;;;;5.57;76.71;101093.28;5097520;28;20083;-66
2022/01/08 02:22:04;;;;;;;5.07;1.77;;;;;;;5.61;76.68;101091.66;5097254;28;20043;-66
2022/01/08 02:24:32;;;;;;;6.57;1.42;;;;;;;5.55;76.89;101093.56;5096908;28;20052;-66
2022/01/08 02:26:59;;;;;;;4.80;1.30;;;;;;;5.40;76.86;101096.28;5096785;28;20052;-66
2022/01/08 02:29:26;;;;;;;4.18;1.60;;;;;;;5.40;77.12;101104.47;5097049;28;20711;-68
2022/01/08 02:32:04;;;;;;;4.75;1.50;;;;;;;5.20;77.53;101098.94;5095906;28;20048;-67
2022/01/08 02:34:31;;;;;;;3.58;1.50;;;;;;;5.37;77.79;101101.44;5097086;28;20048;-66
2022/01/08 02:36:59;;;;;;;6.78;1.50;;;;;;;5.43;77.44;101111.28;5096631;28;20044;-66
2022/01/08 02:39:30;;;;;;;4.35;1.00;;;;;;;5.55;77.34;101100.91;5096871;28;20063;-66
2022/01/08 02:41:59;;;;;;;7.70;1.65;;;;;;;5.57;76.92;101104.22;5096880;28;20041;-66
2022/01/08 02:44:27;;;;;;;5.65;1.45;;;;;;;5.52;76.66;101109.66;5097060;28;20047;-66
2022/01/08 02:46:54;;;;;;;5.32;1.38;;;;;;;5.27;77.79;101099.50;5096809;28;20052;-66
2022/01/08 02:49:23;;;;;;;3.85;1.30;;;;;;;5.25;78.54;101098.13;5095268;28;20059;-65
2022/01/08 02:51:51;;;;;;;3.97;1.10;;;;;;;5.13;78.27;101101.09;5095628;28;20059;-66
2022/01/08 02:54:19;;;;;;;4.90;1.27;;;;;;;5.46;78.28;101111.56;5097067;28;20052;-67
2022/01/08 02:56:48;;;;;;;3.70;0.90;;;;;;;5.43;77.64;101123.03;5096370;28;20178;-66
2022/01/08 02:59:18;;;;;;;4.25;1.10;;;;;;;5.48;77.42;101123.03;5094795;28;20060;-65
2022/01/08 03:01:46;;;;;;;8.68;1.70;;;;;;;5.46;77.08;101132.59;5078587;28;20118;-69
2022/01/08 03:04:14;;;;;;;5.05;1.40;;;;;;;5.25;77.68;101114.50;5096596;28;20496;-66
2022/01/08 03:06:42;;;;;;;4.53;1.10;;;;;;;5.24;77.45;101119.16;5094049;28;20048;-66
2022/01/08 03:09:09;;;;;;;4.30;1.23;;;;;;;5.42;77.12;101112.38;5096342;28;20051;-66
2022/01/08 03:11:38;;;;;;;6.30;1.20;;;;;;;5.39;77.39;101110.16;5096152;28;20048;-66
2022/01/08 03:14:05;;;;;;;5.85;1.30;;;;;;;5.28;77.41;101111.25;5095234;28;20048;-66
2022/01/08 03:16:33;;;;;;;7.32;1.30;;;;;;;5.50;76.99;101109.94;5095634;28;20048;-66
2022/01/08 03:19:09;;;;;;;4.85;1.00;;;;;;;5.78;76.18;101113.25;5096377;28;20039;-66
2022/01/08 03:21:41;;;;;;;5.38;1.40;;;;;;;5.75;75.51;101117.34;5095783;28;20048;-66
2022/01/08 03:24:13;;;;;;;9.05;1.50;;;;;;;5.35;76.20;101109.88;5074758;28;20495;-67
2022/01/08 03:26:41;;;;;;;4.05;1.20;;;;;;;5.46;76.96;101091.59;5075385;28;20052;-67
2022/01/08 03:29:08;;;;;;;6.22;1.33;;;;;;;5.51;77.07;101091.63;5075165;28;20052;-66
2022/01/08 03:31:35;;;;;;;4.60;1.25;;;;;;;5.74;76.05;101094.66;5075741;28;20397;-67
2022/01/08 03:34:05;;;;;;;5.95;1.17;;;;;;;5.38;76.51;101092.97;5075728;28;20060;-66
2022/01/08 03:36:32;;;;;;;7.40;1.33;;;;;;;5.54;77.30;101096.56;5076991;28;20412;-66
2022/01/08 03:39:00;;;;;;;4.57;1.35;;;;;;;5.61;76.15;101097.91;5095566;28;20387;-67
2022/01/08 03:41:27;;;;;;;6.88;1.10;;;;;;;5.50;76.09;101100.91;5095674;28;20147;-66
2022/01/08 03:43:54;;;;;;;3.08;1.25;;;;;;;5.63;76.00;101108.59;5095903;28;20407;-66
2022/01/08 03:46:23;;;;;;;3.88;1.25;;;;;;;5.38;76.24;101103.06;5095675;28;20158;-66
2022/01/08 03:51:30;;;;;;;5.10;1.37;;;;;;;5.23;76.53;101098.38;5095859;28;20388;-66
2022/01/08 03:53:58;;;;;;;4.93;0.95;;;;;;;5.28;76.72;101103.06;5095455;28;20290;-66
2022/01/08 03:56:26;;;;;;;5.65;0.93;;;;;;;5.39;76.61;101099.25;5095847;28;20047;-66
2022/01/08 03:58:53;;;;;;;2.88;0.90;;;;;;;5.66;75.81;101094.38;5094414;28;20063;-65
2022/01/08 04:01:20;;;;;;;11.40;1.15;;;;;;;5.45;76.28;101093.53;5095632;28;20055;-66
2022/01/08 04:03:47;;;;;;;4.15;1.30;;;;;;;5.51;75.62;101080.69;5095477;28;20056;-67
2022/01/08 04:06:15;;;;;;;5.85;1.17;;;;;;;5.61;75.76;101081.53;5095371;28;20157;-67
2022/01/08 04:08:42;;;;;;;8.35;1.00;;;;;;;5.46;76.05;101088.88;5095380;28;20056;-66
2022/01/08 04:11:09;;;;;;;3.75;0.90;;;;;;;5.59;76.10;101091.94;5094483;28;20055;-66
2022/01/08 04:13:40;;;;;;;5.78;1.27;;;;;;;5.33;75.93;101103.91;5095366;28;20051;-65
2022/01/08 04:16:18;;;;;;;4.43;1.13;;;;;;;5.29;76.77;101110.97;5095473;28;20652;-66
2022/01/08 04:18:46;;;;;;;4.93;1.27;;;;;;;5.22;76.97;101104.13;5095150;28;20043;-67
2022/01/08 04:23:49;;;;;;;5.05;1.00;;;;;;;5.22;77.74;101087.75;5095326;28;20048;-66
2022/01/08 04:26:16;;;;;;;4.32;1.20;;;;;;;5.12;78.40;101099.47;5093409;28;20491;-66
2022/01/08 04:28:44;;;;;;;4.10;1.23;;;;;;;5.15;78.51;101092.63;5095196;28;20517;-66
2022/01/08 04:31:11;;;;;;;4.80;1.25;;;;;;;5.10;78.83;101090.72;5093851;28;20052;-66
2022/01/08 04:33:39;;;;;;;4.90;1.02;;;;;;;5.35;78.37;101095.44;5095183;28;20059;-66
2022/01/08 04:36:07;;;;;;;8.02;1.50;;;;;;;5.35;78.07;101089.97;5094910;28;20048;-66
2022/01/08 04:38:34;;;;;;;10.48;1.38;;;;;;;5.33;78.53;101089.41;5094700;28;20505;-66
2022/01/08 04:41:01;;;;;;;5.72;1.40;;;;;;;5.50;77.96;101090.00;5093437;28;20067;-66
2022/01/08 04:43:29;;;;;;;7.55;1.83;;;;;;;5.49;78.23;101088.34;5093871;28;20055;-67
2022/01/08 04:45:56;;;;;;;5.07;1.25;;;;;;;5.55;77.83;101085.34;5095156;28;20062;-66
2022/01/08 04:48:23;;;;;;;7.25;1.20;;;;;;;5.62;77.81;101085.91;5094710;28;20052;-66
2022/01/08 04:50:51;;;;;;;7.65;1.50;;;;;;;5.50;78.20;101087.25;5094824;28;20055;-66
2022/01/08 04:53:18;;;;;;;7.32;1.40;;;;;;;5.60;78.33;101090.00;5095075;28;20044;-66
2022/01/08 04:55:45;;;;;;;9.00;1.63;;;;;;;5.37;79.17;101115.91;5094424;28;20044;-65
2022/01/08 04:58:13;;;;;;;8.05;1.67;;;;;;;5.57;78.91;101112.41;5094562;28;20088;-66
2022/01/08 05:00:40;;;;;;;11.63;1.58;;;;;;;5.49;78.57;101115.69;5094377;28;20176;-66
2022/01/08 05:03:07;;;;;;;6.13;1.50;;;;;;;5.39;79.43;101126.56;5094945;28;20059;-66
2022/01/08 05:05:35;;;;;;;5.22;1.42;;;;;;;5.38;80.21;101136.69;5093319;28;20052;-66
2022/01/08 05:08:02;;;;;;;9.13;1.40;;;;;;;5.47;80.12;101134.25;5094477;28;20055;-67
2022/01/08 05:10:33;;;;;;;8.02;2.17;;;;;;;5.28;80.21;101133.09;5094819;28;20051;-66
2022/01/08 05:13:04;;;;;;;6.47;1.30;;;;;;;5.44;80.45;101129.34;5094865;28;20056;-66
2022/01/08 05:15:32;;;;;;;6.90;2.58;;;;;;;5.57;79.90;101126.06;5094824;28;20059;-66
2022/01/08 05:18:00;;;;;;;6.22;1.50;;;;;;;5.56;80.04;101116.25;5075718;28;20051;-66
2022/01/08 05:20:32;;;;;;;8.88;1.40;;;;;;;5.72;79.03;101107.78;5093119;28;20056;-66
2022/01/08 05:23:03;;;;;;;6.53;1.52;;;;;;;5.58;79.20;101109.41;5095457;28;20081;-66
2022/01/08 05:25:30;;;;;;;9.18;1.60;;;;;;;5.71;79.87;101111.63;5098342;28;20044;-66
2022/01/08 05:27:58;;;;;;;7.38;1.35;;;;;;;5.83;79.02;101110.53;5098197;28;20051;-66
2022/01/08 05:30:27;;;;;;;6.30;1.58;;;;;;;5.82;79.55;101104.25;5098410;28;20040;-66
2022/01/08 05:32:55;;;;;;;6.43;1.33;;;;;;;5.94;78.74;101110.28;5098390;28;20055;-66
2022/01/08 05:35:23;;;;;;;7.05;1.50;;;;;;;5.97;78.56;101108.91;5098339;28;20052;-66
2022/01/08 05:37:51;;;;;;;6.47;1.38;;;;;;;6.11;78.55;101096.34;5097905;28;20051;-66
2022/01/08 05:40:19;;;;;;;7.15;1.42;;;;;;;6.08;78.87;101089.50;5098057;28;20044;-66
2022/01/08 05:42:47;;;;;;;7.72;1.30;;;;;;;6.28;77.60;101086.75;5097924;28;20048;-67
2022/01/08 05:45:14;;;;;;;7.72;1.38;;;;;;;6.28;78.02;101077.72;5098462;28;20044;-67
2022/01/08 05:47:42;;;;;;;7.63;1.33;;;;;;;6.36;77.49;101085.38;5098014;28;20514;-67
2022/01/08 05:50:09;;;;;;;9.15;1.85;;;;;;;6.48;77.29;101078.50;5098048;28;20044;-67
2022/01/08 05:52:37;;;;;;;9.77;1.60;;;;;;;6.63;76.52;101072.97;5077646;28;20051;-65
2022/01/08 05:55:05;;;;;;;12.90;1.75;;;;;;;6.65;76.25;101065.31;5077744;28;20041;-66
2022/01/08 05:57:32;;;;;;;6.35;1.10;;;;;;;6.63;76.36;101077.63;5076150;28;20045;-66
2022/01/08 06:00:01;;;;;;;13.57;1.63;;;;;;;6.58;76.65;101070.25;5075203;28;20057;-66
2022/01/08 06:02:35;;;;;;;9.82;1.70;;;;;;;6.56;76.63;101071.63;5082494;28;20509;-67
2022/01/08 06:05:04;;;;;;;11.20;1.42;;;;;;;6.63;77.02;101072.97;5097593;28;20529;-67
2022/01/08 06:07:32;;;;;;;11.40;1.75;;;;;;;6.64;76.78;101079.28;5097654;28;20522;-66
2022/01/08 06:09:59;;;;;;;6.57;1.83;;;;;;;6.58;76.55;101081.22;5097562;28;20047;-66
2022/01/08 06:12:27;;;;;;;9.02;1.40;;;;;;;6.58;77.28;101083.13;5096373;28;20052;-66
2022/01/08 06:14:54;;;;;;;10.38;1.45;;;;;;;6.79;76.17;101090.16;5097752;28;20055;-66
2022/01/08 06:17:21;;;;;;;13.13;2.10;;;;;;;6.64;76.58;101082.81;5097936;28;20052;-66
2022/01/08 06:19:48;;;;;;;7.70;1.25;;;;;;;6.48;77.83;101085.88;5097248;28;20495;-66
2022/01/08 06:22:16;;;;;;;10.30;1.77;;;;;;;6.48;78.23;101077.69;5097807;28;20048;-66
2022/01/08 06:24:43;;;;;;;14.13;2.17;;;;;;;6.41;78.04;101064.28;5097392;28;20059;-67
2022/01/08 06:27:11;;;;;;;7.75;1.50;;;;;;;6.56;77.51;101058.78;5097386;28;20040;-65
2022/01/08 06:29:38;;;;;;;10.18;1.33;;;;;;;6.52;77.76;101054.16;5097195;28;20052;-66
2022/01/08 06:32:06;;;;;;;10.25;1.50;;;;;;;6.58;77.57;101059.31;5097316;28;20052;-66
2022/01/08 06:34:33;;;;;;;11.63;1.70;;;;;;;6.60;77.26;101062.59;5096289;28;20054;-66
2022/01/08 06:37:01;;;;;;;11.77;1.73;;;;;;;6.47;77.75;101079.59;5097330;28;20051;-66
2022/01/08 06:39:28;;;;;;;7.05;1.38;;;;;;;6.45;78.27;101073.56;5095557;28;20059;-65
2022/01/08 06:41:55;;;;;;;7.80;1.92;;;;;;;6.56;77.55;101053.28;5096978;28;20055;-67
2022/01/08 06:44:22;;;;;;;10.85;1.77;;;;;;;6.38;78.52;101050.34;5097152;28;20062;-66
2022/01/08 06:46:50;;;;;;;12.63;1.52;;;;;;;6.39;78.46;101044.59;5097271;28;20047;-65
2022/01/08 06:49:17;;;;;;;10.20;1.88;;;;;;;6.36;78.36;101047.06;5095166;28;20048;-66
2022/01/08 06:51:44;;;;;;;10.40;1.70;;;;;;;6.27;78.87;101043.25;5096883;28;20059;-66
2022/01/08 06:54:12;;;;;;;9.93;1.50;;;;;;;6.34;79.17;101046.53;5095607;28;20052;-66
2022/01/08 06:56:39;;;;;;;8.52;1.80;;;;;;;6.25;79.54;101049.00;5096669;28;20063;-67
2022/01/08 06:59:06;;;;;;;5.97;1.60;;;;;;;6.32;79.49;101048.72;5096372;28;20056;-65
2022/01/08 07:01:34;;;;;;;13.77;1.85;;;;;;;6.36;79.38;101050.59;5096837;28;20043;-66
2022/01/08 07:04:02;;;;;;;11.63;1.90;;;;;;;6.53;78.69;101048.38;5096166;28;20044;-65
2022/01/08 07:06:29;;;;;;;8.27;1.40;;;;;;;6.41;79.21;101047.06;5095558;28;20048;-66
2022/01/08 07:08:56;;;;;;;7.13;1.45;;;;;;;6.56;78.44;101036.03;5094790;28;20048;-66
2022/01/08 07:11:23;;;;;;;11.05;1.80;;;;;;;6.60;78.47;101034.41;5096400;28;20048;-66
2022/01/08 07:13:51;;;;;;;9.77;1.83;;;;;;;6.40;79.36;101029.81;5095325;28;20422;-66
2022/01/08 07:16:18;;;;;;;9.55;2.00;;;;;;;6.55;79.00;101027.03;5095347;28;20066;-66
2022/01/08 07:18:45;;;;;;;11.90;1.70;;;;;;;6.59;79.21;101027.31;5095956;28;20043;-66
2022/01/08 07:21:12;;;;;;;10.95;1.95;;;;;;;6.72;78.86;101030.25;5096294;28;20058;-66
2022/01/08 07:23:39;;;;;;;14.80;2.20;;;;;;;6.62;79.83;101024.81;5096336;28;20051;-66
2022/01/08 07:26:07;;;;;;;17.27;2.50;;;;;;;6.69;79.88;101017.09;5094646;28;20055;-67
2022/01/08 07:28:34;;;;;;;17.02;2.88;;;;;;;6.78;79.74;100999.00;5094597;28;20059;-66
2022/01/08 07:31:01;;;;;;;12.13;2.30;;;;;;;6.58;80.15;101004.59;5094756;28;20052;-66
2022/01/08 07:33:28;;;;;;;15.27;3.03;;;;;;;6.50;80.79;101001.59;5095731;28;20054;-67
2022/01/08 07:35:55;;;;;;;13.95;2.22;;;;;;;6.25;81.50;100988.84;5096008;28;20055;-66
2022/01/08 07:38:23;;;;;;;17.42;2.80;;;;;;;6.18;81.23;100985.56;5095757;28;20042;-66
2022/01/08 07:40:51;;;;;;;15.15;2.53;;;;;;;6.04;82.28;100991.88;5095281;28;20048;-66
2022/01/08 07:43:19;;;;;;;12.57;3.08;;;;;;;5.92;83.35;101003.13;5095952;28;20138;-67
2022/01/08 07:45:47;;;;;;;20.98;8.40;;;;;;;6.14;82.61;101000.88;5095803;28;20464;-67
2022/01/08 07:48:15;;;;;;;14.35;5.00;;;;;;;6.19;82.33;101011.00;5077306;28;20047;-65
2022/01/08 07:50:43;;;;;;;15.15;4.40;;;;;;;6.38;81.68;100993.69;5095124;28;20047;-66
2022/01/08 07:53:10;;;;;;;32.83;13.20;;;;;;;6.44;81.15;100994.50;5094870;28;20410;-66
2022/01/08 07:55:37;;;;;;;18.85;3.58;;;;;;;6.41;81.57;100993.16;5094728;28;20047;-66
2022/01/08 07:58:04;;;;;;;16.17;3.25;;;;;;;6.53;80.68;100993.66;5076784;28;20052;-66
2022/01/08 08:00:32;;;;;;;10.82;3.00;;;;;;;6.64;81.16;100984.28;5095446;28;20052;-66
2022/01/08 08:02:59;;;;;;;20.83;3.63;;;;;;;6.45;80.77;100977.81;5094009;28;20127;-66
2022/01/08 08:05:27;;;;;;;12.35;3.75;;;;;;;6.45;81.21;100972.31;5094579;28;20048;-65
2022/01/08 08:07:55;;;;;;;20.60;3.70;;;;;;;6.55;80.88;100979.69;5093247;28;20411;-66
2022/01/08 08:10:25;;;;;;;18.13;3.53;;;;;;;6.67;80.74;100970.06;5093895;28;20043;-65
2022/01/08 08:12:56;;;;;;;13.25;3.03;;;;;;;6.78;80.44;100965.34;5094460;28;20059;-66
2022/01/08 08:15:23;;;;;;;17.30;3.63;;;;;;;6.82;80.04;100963.66;5095405;28;20063;-66
2022/01/08 08:17:51;;;;;;;15.02;3.10;;;;;;;6.74;81.28;100956.06;5095140;28;20055;-67
2022/01/08 08:20:18;;;;;;;19.08;3.50;;;;;;;6.69;82.66;100959.63;5093829;28;20048;-65
2022/01/08 08:22:46;;;;;;;29.60;4.15;;;;;;;6.81;83.02;100954.66;5095531;28;20059;-66
2022/01/08 08:25:13;;;;;;;17.85;3.88;;;;;;;7.05;83.03;100948.47;5095043;28;20048;-65
2022/01/08 08:27:40;;;;;;;28.88;5.20;;;;;;;7.19;83.31;100950.28;5093065;28;20059;-66
2022/01/08 08:30:09;;;;;;;21.75;3.47;;;;;;;7.10;83.22;100941.03;5095165;28;20048;-65
2022/01/08 08:32:37;;;;;;;22.40;4.22;;;;;;;7.11;84.00;100936.38;5095160;28;20052;-66
2022/01/08 08:35:05;;;;;;;25.85;4.53;;;;;;;7.06;85.02;100928.19;5095066;28;20392;-66
2022/01/08 08:37:34;;;;;;;22.02;4.78;;;;;;;7.11;85.22;100929.00;5094129;28;20067;-64
2022/01/08 08:40:05;;;;;;;24.98;4.32;;;;;;;7.05;86.16;100921.91;5093729;28;20067;-66
2022/01/08 08:42:32;;;;;;;26.30;3.80;;;;;;;7.14;86.13;100920.19;5094630;28;20048;-65
2022/01/08 08:44:59;;;;;;;22.85;4.47;;;;;;;7.26;85.53;100911.59;5095128;28;20059;-65
2022/01/08 08:47:26;;;;;;;27.98;5.90;;;;;;;7.12;86.73;100907.88;5094738;28;20052;-67
2022/01/08 08:49:54;;;;;;;30.67;10.02;;;;;;;7.10;87.58;100905.41;5094556;28;20402;-67
2022/01/08 08:52:23;;;;;;;20.83;4.70;;;;;;;7.16;87.79;100904.28;5095086;28;20143;-66
2022/01/08 08:54:51;;;;;;;19.45;4.32;;;;;;;7.21;88.40;100896.03;5095032;28;20059;-67
2022/01/08 08:57:18;;;;;;;16.50;3.53;;;;;;;7.29;88.00;100895.41;5096340;28;20498;-67
2022/01/08 08:59:46;;;;;;;24.67;4.50;;;;;;;7.52;87.66;100891.09;5099254;28;20060;-65
2022/01/08 09:02:13;;;;;;;20.52;4.22;;;;;;;7.56;86.73;100895.72;5099092;28;20048;-66
2022/01/08 09:04:41;;;;;;;19.83;3.55;;;;;;;7.70;86.65;100893.94;5098922;28;20054;-66
2022/01/08 09:07:10;;;;;;;13.48;3.70;;;;;;;7.78;86.24;100895.19;5097954;28;20058;-66
2022/01/08 09:09:37;;;;;;;15.50;4.03;;;;;;;7.55;87.20;100883.09;5095482;28;20048;-66
2022/01/08 09:12:05;;;;;;;23.20;4.30;;;;;;;7.60;87.51;100880.31;5097174;28;20056;-65
2022/01/08 09:14:32;;;;;;;16.92;4.30;;;;;;;7.65;87.00;100887.69;5080459;28;20134;-66
2022/01/08 09:17:03;;;;;;;14.95;3.97;;;;;;;7.77;86.80;100882.59;5098703;28;20399;-66
2022/01/08 09:19:31;;;;;;;15.82;3.50;;;;;;;7.92;86.62;100865.97;5098638;28;20510;-66
2022/01/08 09:22:01;;;;;;;14.30;3.67;;;;;;;7.80;86.74;100858.16;5098831;28;20040;-66
2022/01/08 09:24:30;;;;;;;12.38;3.80;;;;;;;7.92;86.69;100855.81;5099009;28;20047;-66
2022/01/08 09:26:58;;;;;;;14.68;3.90;;;;;;;8.24;85.41;100857.94;5098828;28;20047;-68
2022/01/08 09:29:26;;;;;;;13.98;3.63;;;;;;;8.25;85.50;100864.22;5098446;28;20044;-66
2022/01/08 09:31:53;;;;;;;19.17;4.28;;;;;;;8.22;85.52;100857.38;5098859;28;20051;-66
2022/01/08 09:34:20;;;;;;;14.07;3.33;;;;;;;8.38;85.30;100860.75;5076876;28;20048;-67
2022/01/08 09:36:48;;;;;;;14.85;3.65;;;;;;;8.50;85.15;100844.66;5078303;28;20059;-66
2022/01/08 09:39:16;;;;;;;18.65;4.07;;;;;;;8.42;85.13;100845.34;5077779;28;20057;-67
2022/01/08 09:41:44;;;;;;;17.80;7.78;;;;;;;8.45;85.81;100845.56;5077942;28;20056;-67
2022/01/08 09:44:12;;;;;;;30.38;12.20;;;;;;;8.62;85.11;100843.13;5078010;28;20048;-67
2022/01/08 09:46:40;;;;;;;11.43;4.35;;;;;;;8.71;84.36;100848.75;5079820;28;20119;-66
2022/01/08 09:49:07;;;;;;;13.25;3.60;;;;;;;8.89;84.31;100831.44;5097662;28;20063;-66
2022/01/08 09:51:35;;;;;;;23.95;4.03;;;;;;;8.81;84.18;100824.69;5095162;28;20412;-66
2022/01/08 09:54:04;;;;;;;15.60;3.40;;;;;;;8.80;84.37;100820.28;5097774;28;20064;-66
2022/01/08 09:56:32;;;;;;;19.58;3.92;;;;;;;8.73;84.43;100811.66;5097744;28;20399;-66
2022/01/08 09:59:00;;;;;;;17.33;3.60;;;;;;;8.89;84.50;100806.72;5097639;28;20078;-67
2022/01/08 10:01:33;;;;;;;16.35;4.13;;;;;;;8.80;84.69;100805.78;5097854;28;20078;-66
2022/01/08 10:04:03;;;;;;;21.65;8.02;;;;;;;8.77;85.38;100787.94;5076119;28;20053;-67
2022/01/08 10:06:35;;;;;;;21.20;5.95;;;;;;;8.83;85.30;100778.53;5077563;28;20052;-66
2022/01/08 10:09:07;;;;;;;24.63;5.72;;;;;;;8.96;85.08;100775.00;5076555;28;20048;-67
2022/01/08 10:11:36;;;;;;;20.48;4.45;;;;;;;9.08;84.37;100772.56;5097645;28;20063;-66
2022/01/08 10:14:14;;;;;;;23.40;4.72;;;;;;;9.05;84.79;100772.34;5097832;28;20120;-66
2022/01/08 10:19:30;;;;;;;16.08;3.65;;;;;;;9.07;85.28;100772.88;5097439;28;20059;-67
2022/01/08 10:21:58;;;;;;;21.90;4.50;;;;;;;9.15;85.01;100763.13;5097387;28;20048;-66
2022/01/08 10:24:27;;;;;;;21.80;4.40;;;;;;;8.97;85.71;100760.16;5096178;28;20056;-66
2022/01/08 10:27:04;;;;;;;27.98;5.53;;;;;;;9.19;85.58;100759.47;5097463;28;20052;-66
2022/01/08 10:29:33;;;;;;;23.85;4.07;;;;;;;9.35;84.73;100754.50;5096838;28;20408;-67
2022/01/08 10:32:04;;;;;;;27.02;4.38;;;;;;;9.10;85.67;100745.63;5097139;28;20048;-66
2022/01/08 10:34:32;;;;;;;21.00;4.55;;;;;;;9.34;85.68;100750.13;5097396;28;20052;-65
2022/01/08 10:37:02;;;;;;;37.65;5.40;;;;;;;9.34;85.11;100739.13;5097351;28;20099;-67
2022/01/08 10:39:39;;;;;;;32.28;5.35;;;;;;;9.36;84.75;100734.97;5096886;28;20036;-67
2022/01/08 10:42:16;;;;;;;26.48;4.75;;;;;;;9.47;84.38;100736.38;5097257;28;20043;-67
2022/01/08 10:44:47;;;;;;;28.83;5.25;;;;;;;9.33;84.89;100735.56;5097153;28;20056;-67
2022/01/08 10:47:17;;;;;;;40.05;5.53;;;;;;;9.26;85.79;100723.34;5095990;28;20055;-67
2022/01/08 10:49:46;;;;;;;27.98;5.20;;;;;;;9.12;86.98;100717.03;5096734;28;20479;-66
2022/01/08 10:52:16;;;;;;;35.83;5.63;;;;;;;9.19;86.92;100706.47;5097007;28;20052;-68
2022/01/08 10:54:58;;;;;;;28.13;5.65;;;;;;;9.08;87.39;100700.34;5097152;28;20400;-66
2022/01/08 10:57:33;;;;;;;35.63;6.18;;;;;;;9.13;87.61;100698.28;5096851;28;20391;-67
2022/01/08 11:00:04;;;;;;;33.70;7.75;;;;;;;9.26;86.98;100679.38;5095497;28;20052;-68
2022/01/08 11:02:31;;;;;;;31.73;6.80;;;;;;;9.18;87.39;100669.91;5096863;28;20418;-66
2022/01/08 11:05:01;;;;;;;35.22;6.75;;;;;;;9.07;87.55;100666.53;5096931;28;20052;-67
2022/01/08 11:07:33;;;;;;;20.98;5.72;;;;;;;9.12;88.05;100662.88;5094401;28;20048;-66
2022/01/08 11:10:11;;;;;;;28.58;5.55;;;;;;;9.42;87.18;100658.69;5095335;28;20055;-67
2022/01/08 11:12:42;;;;;;;27.48;5.40;;;;;;;9.36;86.93;100655.25;5096458;28;20063;-68
2022/01/08 11:17:51;;;;;;;25.42;4.80;;;;;;;9.38;87.52;100631.00;5096076;28;19920;-67
2022/01/08 11:20:39;;;;;;;28.77;5.82;;;;;;;9.28;87.07;100631.22;5094537;28;20058;-68
2022/01/08 11:23:07;;;;;;;21.75;4.57;;;;;;;9.43;86.92;100625.38;5096489;28;20574;-68
2022/01/08 11:25:38;;;;;;;25.80;4.97;;;;;;;9.38;86.72;100625.50;5094511;28;20503;-66
2022/01/08 11:28:07;;;;;;;24.45;4.80;;;;;;;9.43;86.65;100611.63;5096021;28;20052;-66
2022/01/08 11:30:39;;;;;;;27.63;5.38;;;;;;;9.20;87.23;100606.41;5095445;28;20053;-67
2022/01/08 11:33:15;;;;;;;24.48;4.82;;;;;;;9.24;87.63;100604.66;5094575;28;20047;-66
2022/01/08 11:35:45;;;;;;;30.70;5.55;;;;;;;9.38;87.68;100592.50;5096045;28;20056;-67
2022/01/08 11:38:14;;;;;;;30.13;5.07;;;;;;;9.47;87.48;100592.59;5094564;28;20051;-67
2022/01/08 11:40:43;;;;;;;23.67;4.63;;;;;;;9.43;87.18;100572.38;5095222;28;20036;-67
2022/01/08 11:43:13;;;;;;;27.88;6.40;;;;;;;9.34;86.93;100564.03;5096740;28;20040;-68
2022/01/08 11:45:47;;;;;;;26.35;4.80;;;;;;;9.44;87.40;100551.97;5095905;28;20048;-67
2022/01/08 11:48:15;;;;;;;27.95;5.63;;;;;;;9.32;86.94;100547.03;5096955;28;20360;-67
2022/01/08 11:50:51;;;;;;;29.00;7.03;;;;;;;9.40;86.86;100532.53;5094565;28;20146;-67
2022/01/08 11:53:23;;;;;;;33.30;8.05;;;;;;;9.55;86.97;100528.63;5094198;28;20052;-67
2022/01/08 11:55:53;;;;;;;24.80;5.55;;;;;;;9.44;86.45;100519.81;5095495;28;20056;-67
2022/01/08 11:58:27;;;;;;;29.23;6.90;;;;;;;9.28;87.31;100510.28;5095320;28;20063;-67
2022/01/08 12:01:00;;;;;;;30.13;6.93;;;;;;;9.49;86.73;100502.38;5093953;28;20052;-67
2022/01/08 12:03:36;;;;;;;27.67;5.13;;;;;;;9.40;86.90;100485.00;5095636;28;20040;-66